sensor_id;sensor_type;location;lat;lon;timestamp;P1;durP1;ratioP1;P2;durP2;ratioP2
83247;SDS011;73465;51.038;7.052;2023-12-04T00:01:45;4.75;;;1.60;;
83247;SDS011;73465;51.038;7.052;2023-12-04T00:04:11;2.42;;;1.48;;
83247;SDS011;73465;51.038;7.052;2023-12-04T00:06:37;4.50;;;1.27;;
83247;SDS011;73465;51.038;7.052;2023-12-04T00:09:03;4.13;;;1.90;;
83247;SDS011;73465;51.038;7.052;2023-12-04T00:11:28;2.83;;;1.38;;
83247;SDS011;73465;51.038;7.052;2023-12-04T00:13:54;4.82;;;1.40;;
83247;SDS011;73465;51.038;7.052;2023-12-04T00:16:19;3.95;;;1.55;;
83247;SDS011;73465;51.038;7.052;2023-12-04T00:18:44;2.28;;;1.55;;
83247;SDS011;73465;51.038;7.052;2023-12-04T00:21:10;6.75;;;2.00;;
83247;SDS011;73465;51.038;7.052;2023-12-04T00:23:35;6.95;;;1.70;;
83247;SDS011;73465;51.038;7.052;2023-12-04T00:26:00;5.63;;;2.17;;
83247;SDS011;73465;51.038;7.052;2023-12-04T00:28:26;4.05;;;1.65;;
83247;SDS011;73465;51.038;7.052;2023-12-04T00:30:53;2.78;;;1.40;;
83247;SDS011;73465;51.038;7.052;2023-12-04T00:33:19;2.17;;;1.50;;
83247;SDS011;73465;51.038;7.052;2023-12-04T00:35:44;2.45;;;1.40;;
83247;SDS011;73465;51.038;7.052;2023-12-04T00:38:09;6.90;;;1.63;;
83247;SDS011;73465;51.038;7.052;2023-12-04T00:40:35;2.42;;;1.60;;
83247;SDS011;73465;51.038;7.052;2023-12-04T00:43:00;5.32;;;1.70;;
83247;SDS011;73465;51.038;7.052;2023-12-04T00:45:25;3.70;;;1.38;;
83247;SDS011;73465;51.038;7.052;2023-12-04T00:47:51;5.10;;;1.50;;
83247;SDS011;73465;51.038;7.052;2023-12-04T00:50:16;2.03;;;1.20;;
83247;SDS011;73465;51.038;7.052;2023-12-04T00:52:41;6.05;;;1.70;;
83247;SDS011;73465;51.038;7.052;2023-12-04T00:55:07;4.82;;;1.17;;
83247;SDS011;73465;51.038;7.052;2023-12-04T00:57:32;2.92;;;1.65;;
83247;SDS011;73465;51.038;7.052;2023-12-04T00:59:57;2.67;;;1.35;;
83247;SDS011;73465;51.038;7.052;2023-12-04T01:02:23;1.95;;;1.38;;
83247;SDS011;73465;51.038;7.052;2023-12-04T01:04:48;5.03;;;1.73;;
83247;SDS011;73465;51.038;7.052;2023-12-04T01:07:13;6.78;;;1.65;;
83247;SDS011;73465;51.038;7.052;2023-12-04T01:09:39;14.98;;;1.80;;
83247;SDS011;73465;51.038;7.052;2023-12-04T01:12:04;6.00;;;1.63;;
83247;SDS011;73465;51.038;7.052;2023-12-04T01:14:30;8.00;;;2.35;;
83247;SDS011;73465;51.038;7.052;2023-12-04T01:16:55;4.47;;;1.70;;
83247;SDS011;73465;51.038;7.052;2023-12-04T01:19:21;3.10;;;1.50;;
83247;SDS011;73465;51.038;7.052;2023-12-04T01:21:46;7.97;;;1.73;;
83247;SDS011;73465;51.038;7.052;2023-12-04T01:24:12;2.83;;;1.20;;
83247;SDS011;73465;51.038;7.052;2023-12-04T01:26:37;3.58;;;1.40;;
83247;SDS011;73465;51.038;7.052;2023-12-04T01:29:03;2.63;;;1.60;;
83247;SDS011;73465;51.038;7.052;2023-12-04T01:31:28;3.88;;;1.70;;
83247;SDS011;73465;51.038;7.052;2023-12-04T01:33:53;3.55;;;1.92;;
83247;SDS011;73465;51.038;7.052;2023-12-04T01:36:19;4.50;;;1.48;;
83247;SDS011;73465;51.038;7.052;2023-12-04T01:38:44;3.05;;;1.50;;
83247;SDS011;73465;51.038;7.052;2023-12-04T01:41:09;2.13;;;1.42;;
83247;SDS011;73465;51.038;7.052;2023-12-04T01:43:35;5.43;;;1.50;;
83247;SDS011;73465;51.038;7.052;2023-12-04T01:46:00;4.60;;;1.83;;
83247;SDS011;73465;51.038;7.052;2023-12-04T01:48:26;2.60;;;1.70;;
83247;SDS011;73465;51.038;7.052;2023-12-04T01:50:53;6.07;;;1.55;;
83247;SDS011;73465;51.038;7.052;2023-12-04T01:53:18;2.50;;;1.20;;
83247;SDS011;73465;51.038;7.052;2023-12-04T01:55:44;6.88;;;1.35;;
83247;SDS011;73465;51.038;7.052;2023-12-04T01:58:11;3.03;;;1.60;;
83247;SDS011;73465;51.038;7.052;2023-12-04T02:00:36;9.65;;;1.50;;
83247;SDS011;73465;51.038;7.052;2023-12-04T02:03:02;4.93;;;1.77;;
83247;SDS011;73465;51.038;7.052;2023-12-04T02:05:27;6.97;;;1.48;;
83247;SDS011;73465;51.038;7.052;2023-12-04T02:07:53;8.55;;;1.42;;
83247;SDS011;73465;51.038;7.052;2023-12-04T02:10:20;3.15;;;1.38;;
83247;SDS011;73465;51.038;7.052;2023-12-04T02:12:46;3.55;;;1.55;;
83247;SDS011;73465;51.038;7.052;2023-12-04T02:15:11;5.28;;;1.55;;
83247;SDS011;73465;51.038;7.052;2023-12-04T02:17:36;6.95;;;1.50;;
83247;SDS011;73465;51.038;7.052;2023-12-04T02:20:04;6.60;;;1.30;;
83247;SDS011;73465;51.038;7.052;2023-12-04T02:22:30;3.47;;;1.40;;
83247;SDS011;73465;51.038;7.052;2023-12-04T02:24:55;6.38;;;1.30;;
83247;SDS011;73465;51.038;7.052;2023-12-04T02:27:25;4.43;;;1.52;;
83247;SDS011;73465;51.038;7.052;2023-12-04T02:29:58;7.65;;;1.67;;
83247;SDS011;73465;51.038;7.052;2023-12-04T02:32:26;7.70;;;1.58;;
83247;SDS011;73465;51.038;7.052;2023-12-04T02:34:54;6.30;;;1.55;;
83247;SDS011;73465;51.038;7.052;2023-12-04T02:37:20;6.15;;;1.52;;
83247;SDS011;73465;51.038;7.052;2023-12-04T02:39:47;4.10;;;1.42;;
83247;SDS011;73465;51.038;7.052;2023-12-04T02:42:14;7.30;;;1.85;;
83247;SDS011;73465;51.038;7.052;2023-12-04T02:44:42;10.40;;;1.67;;
83247;SDS011;73465;51.038;7.052;2023-12-04T02:47:07;5.32;;;1.50;;
83247;SDS011;73465;51.038;7.052;2023-12-04T02:49:33;6.95;;;1.40;;
83247;SDS011;73465;51.038;7.052;2023-12-04T02:51:58;5.93;;;1.70;;
83247;SDS011;73465;51.038;7.052;2023-12-04T02:54:23;9.25;;;1.50;;
83247;SDS011;73465;51.038;7.052;2023-12-04T02:56:49;7.28;;;1.50;;
83247;SDS011;73465;51.038;7.052;2023-12-04T02:59:15;4.80;;;1.67;;
83247;SDS011;73465;51.038;7.052;2023-12-04T03:01:40;3.30;;;1.48;;
83247;SDS011;73465;51.038;7.052;2023-12-04T03:04:05;5.07;;;1.60;;
83247;SDS011;73465;51.038;7.052;2023-12-04T03:06:31;12.02;;;2.25;;
83247;SDS011;73465;51.038;7.052;2023-12-04T03:08:56;2.35;;;1.27;;
83247;SDS011;73465;51.038;7.052;2023-12-04T03:11:24;5.32;;;1.30;;
83247;SDS011;73465;51.038;7.052;2023-12-04T03:13:49;3.13;;;1.50;;
83247;SDS011;73465;51.038;7.052;2023-12-04T03:16:15;8.10;;;1.30;;
83247;SDS011;73465;51.038;7.052;2023-12-04T03:18:41;2.40;;;1.42;;
83247;SDS011;73465;51.038;7.052;2023-12-04T03:21:07;5.88;;;1.35;;
83247;SDS011;73465;51.038;7.052;2023-12-04T03:23:32;6.78;;;1.67;;
83247;SDS011;73465;51.038;7.052;2023-12-04T03:25:58;6.15;;;1.67;;
83247;SDS011;73465;51.038;7.052;2023-12-04T03:28:23;8.40;;;1.30;;
83247;SDS011;73465;51.038;7.052;2023-12-04T03:30:48;3.25;;;1.38;;
83247;SDS011;73465;51.038;7.052;2023-12-04T03:33:13;3.60;;;1.17;;
83247;SDS011;73465;51.038;7.052;2023-12-04T03:35:39;11.77;;;1.42;;
83247;SDS011;73465;51.038;7.052;2023-12-04T03:38:04;1.88;;;1.05;;
83247;SDS011;73465;51.038;7.052;2023-12-04T03:40:30;2.10;;;1.20;;
83247;SDS011;73465;51.038;7.052;2023-12-04T03:42:55;4.63;;;1.30;;
83247;SDS011;73465;51.038;7.052;2023-12-04T03:45:20;3.90;;;1.50;;
83247;SDS011;73465;51.038;7.052;2023-12-04T03:47:45;6.95;;;1.60;;
83247;SDS011;73465;51.038;7.052;2023-12-04T03:50:11;9.85;;;1.65;;
83247;SDS011;73465;51.038;7.052;2023-12-04T03:52:37;5.13;;;1.27;;
83247;SDS011;73465;51.038;7.052;2023-12-04T03:55:02;6.10;;;1.55;;
83247;SDS011;73465;51.038;7.052;2023-12-04T03:57:28;8.68;;;2.17;;
83247;SDS011;73465;51.038;7.052;2023-12-04T03:59:53;9.30;;;1.48;;
83247;SDS011;73465;51.038;7.052;2023-12-04T04:02:18;6.25;;;1.70;;
83247;SDS011;73465;51.038;7.052;2023-12-04T04:04:44;4.38;;;1.23;;
83247;SDS011;73465;51.038;7.052;2023-12-04T04:07:09;5.85;;;1.30;;
83247;SDS011;73465;51.038;7.052;2023-12-04T04:09:34;11.73;;;1.60;;
83247;SDS011;73465;51.038;7.052;2023-12-04T04:12:00;3.72;;;1.20;;
83247;SDS011;73465;51.038;7.052;2023-12-04T04:14:25;2.97;;;1.10;;
83247;SDS011;73465;51.038;7.052;2023-12-04T04:16:50;2.47;;;1.10;;
83247;SDS011;73465;51.038;7.052;2023-12-04T04:19:16;5.22;;;1.15;;
83247;SDS011;73465;51.038;7.052;2023-12-04T04:21:41;10.20;;;2.20;;
83247;SDS011;73465;51.038;7.052;2023-12-04T04:24:06;9.63;;;1.30;;
83247;SDS011;73465;51.038;7.052;2023-12-04T04:26:32;7.90;;;1.95;;
83247;SDS011;73465;51.038;7.052;2023-12-04T04:28:58;3.15;;;1.20;;
83247;SDS011;73465;51.038;7.052;2023-12-04T04:31:23;10.35;;;1.52;;
83247;SDS011;73465;51.038;7.052;2023-12-04T04:33:48;10.07;;;1.55;;
83247;SDS011;73465;51.038;7.052;2023-12-04T04:36:14;5.88;;;1.17;;
83247;SDS011;73465;51.038;7.052;2023-12-04T04:38:39;3.22;;;1.13;;
83247;SDS011;73465;51.038;7.052;2023-12-04T04:41:05;4.85;;;1.60;;
83247;SDS011;73465;51.038;7.052;2023-12-04T04:43:31;2.90;;;1.55;;
83247;SDS011;73465;51.038;7.052;2023-12-04T04:45:56;5.72;;;1.25;;
83247;SDS011;73465;51.038;7.052;2023-12-04T04:48:21;3.50;;;1.98;;
83247;SDS011;73465;51.038;7.052;2023-12-04T04:50:46;3.13;;;1.13;;
83247;SDS011;73465;51.038;7.052;2023-12-04T04:53:12;5.85;;;1.35;;
83247;SDS011;73465;51.038;7.052;2023-12-04T04:55:37;2.97;;;1.33;;
83247;SDS011;73465;51.038;7.052;2023-12-04T04:58:02;3.50;;;1.15;;
83247;SDS011;73465;51.038;7.052;2023-12-04T05:00:27;7.40;;;1.40;;
83247;SDS011;73465;51.038;7.052;2023-12-04T05:02:53;9.10;;;1.50;;
83247;SDS011;73465;51.038;7.052;2023-12-04T05:05:18;4.53;;;1.30;;
83247;SDS011;73465;51.038;7.052;2023-12-04T05:07:43;7.25;;;1.13;;
83247;SDS011;73465;51.038;7.052;2023-12-04T05:10:09;1.98;;;1.33;;
83247;SDS011;73465;51.038;7.052;2023-12-04T05:12:34;4.07;;;1.33;;
83247;SDS011;73465;51.038;7.052;2023-12-04T05:14:59;4.90;;;1.10;;
83247;SDS011;73465;51.038;7.052;2023-12-04T05:17:25;2.83;;;1.20;;
83247;SDS011;73465;51.038;7.052;2023-12-04T05:19:50;4.38;;;1.20;;
83247;SDS011;73465;51.038;7.052;2023-12-04T05:22:15;3.15;;;1.10;;
83247;SDS011;73465;51.038;7.052;2023-12-04T05:24:41;2.15;;;1.10;;
83247;SDS011;73465;51.038;7.052;2023-12-04T05:27:06;4.03;;;1.27;;
83247;SDS011;73465;51.038;7.052;2023-12-04T05:29:31;3.88;;;1.25;;
83247;SDS011;73465;51.038;7.052;2023-12-04T05:31:56;3.00;;;1.45;;
83247;SDS011;73465;51.038;7.052;2023-12-04T05:34:22;2.63;;;1.30;;
83247;SDS011;73465;51.038;7.052;2023-12-04T05:36:48;7.38;;;1.48;;
83247;SDS011;73465;51.038;7.052;2023-12-04T05:39:13;5.63;;;1.25;;
83247;SDS011;73465;51.038;7.052;2023-12-04T05:41:38;5.60;;;1.20;;
83247;SDS011;73465;51.038;7.052;2023-12-04T05:44:04;4.82;;;1.08;;
83247;SDS011;73465;51.038;7.052;2023-12-04T05:46:29;5.10;;;1.25;;
83247;SDS011;73465;51.038;7.052;2023-12-04T05:48:54;3.28;;;1.42;;
83247;SDS011;73465;51.038;7.052;2023-12-04T05:51:20;14.30;;;1.63;;
83247;SDS011;73465;51.038;7.052;2023-12-04T05:53:45;10.88;;;1.58;;
83247;SDS011;73465;51.038;7.052;2023-12-04T05:56:11;26.33;;;2.28;;
83247;SDS011;73465;51.038;7.052;2023-12-04T05:58:37;23.55;;;2.30;;
83247;SDS011;73465;51.038;7.052;2023-12-04T06:01:02;13.65;;;2.17;;
83247;SDS011;73465;51.038;7.052;2023-12-04T06:03:28;10.02;;;3.10;;
83247;SDS011;73465;51.038;7.052;2023-12-04T06:05:53;9.77;;;6.10;;
83247;SDS011;73465;51.038;7.052;2023-12-04T06:08:19;10.30;;;6.03;;
83247;SDS011;73465;51.038;7.052;2023-12-04T06:10:45;12.52;;;6.57;;
83247;SDS011;73465;51.038;7.052;2023-12-04T06:13:11;9.73;;;5.88;;
83247;SDS011;73465;51.038;7.052;2023-12-04T06:15:36;9.32;;;6.00;;
83247;SDS011;73465;51.038;7.052;2023-12-04T06:18:01;7.47;;;4.63;;
83247;SDS011;73465;51.038;7.052;2023-12-04T06:20:27;8.27;;;4.63;;
83247;SDS011;73465;51.038;7.052;2023-12-04T06:22:52;8.90;;;4.68;;
83247;SDS011;73465;51.038;7.052;2023-12-04T06:25:18;10.85;;;3.60;;
83247;SDS011;73465;51.038;7.052;2023-12-04T06:27:43;6.15;;;3.65;;
83247;SDS011;73465;51.038;7.052;2023-12-04T06:30:09;6.07;;;3.20;;
83247;SDS011;73465;51.038;7.052;2023-12-04T06:32:35;4.35;;;2.65;;
83247;SDS011;73465;51.038;7.052;2023-12-04T06:35:00;6.38;;;3.13;;
83247;SDS011;73465;51.038;7.052;2023-12-04T06:37:26;6.75;;;3.15;;
83247;SDS011;73465;51.038;7.052;2023-12-04T06:39:52;4.13;;;2.50;;
83247;SDS011;73465;51.038;7.052;2023-12-04T06:42:19;4.47;;;2.30;;
83247;SDS011;73465;51.038;7.052;2023-12-04T06:44:44;3.40;;;2.25;;
83247;SDS011;73465;51.038;7.052;2023-12-04T06:47:10;4.03;;;2.10;;
83247;SDS011;73465;51.038;7.052;2023-12-04T06:49:38;5.28;;;2.13;;
83247;SDS011;73465;51.038;7.052;2023-12-04T06:52:03;4.05;;;2.22;;
83247;SDS011;73465;51.038;7.052;2023-12-04T06:54:29;4.78;;;2.10;;
83247;SDS011;73465;51.038;7.052;2023-12-04T06:56:55;3.28;;;1.98;;
83247;SDS011;73465;51.038;7.052;2023-12-04T06:59:21;4.88;;;1.98;;
83247;SDS011;73465;51.038;7.052;2023-12-04T07:01:46;10.88;;;2.00;;
83247;SDS011;73465;51.038;7.052;2023-12-04T07:04:12;3.42;;;1.98;;
83247;SDS011;73465;51.038;7.052;2023-12-04T07:06:38;3.35;;;1.90;;
83247;SDS011;73465;51.038;7.052;2023-12-04T07:09:03;3.00;;;1.80;;
83247;SDS011;73465;51.038;7.052;2023-12-04T07:11:29;3.45;;;1.83;;
83247;SDS011;73465;51.038;7.052;2023-12-04T07:13:55;11.70;;;2.00;;
83247;SDS011;73465;51.038;7.052;2023-12-04T07:16:20;3.22;;;1.83;;
83247;SDS011;73465;51.038;7.052;2023-12-04T07:18:46;5.25;;;1.65;;
83247;SDS011;73465;51.038;7.052;2023-12-04T07:21:11;3.10;;;1.60;;
83247;SDS011;73465;51.038;7.052;2023-12-04T07:23:37;6.70;;;2.22;;
83247;SDS011;73465;51.038;7.052;2023-12-04T07:26:02;11.85;;;2.03;;
83247;SDS011;73465;51.038;7.052;2023-12-04T07:28:28;3.17;;;2.15;;
83247;SDS011;73465;51.038;7.052;2023-12-04T07:30:54;4.75;;;1.70;;
83247;SDS011;73465;51.038;7.052;2023-12-04T07:33:21;2.58;;;1.90;;
83247;SDS011;73465;51.038;7.052;2023-12-04T07:35:46;5.05;;;1.60;;
83247;SDS011;73465;51.038;7.052;2023-12-04T07:38:12;4.70;;;2.00;;
83247;SDS011;73465;51.038;7.052;2023-12-04T07:40:37;7.90;;;1.83;;
83247;SDS011;73465;51.038;7.052;2023-12-04T07:43:02;5.18;;;1.63;;
83247;SDS011;73465;51.038;7.052;2023-12-04T07:45:28;8.48;;;1.92;;
83247;SDS011;73465;51.038;7.052;2023-12-04T07:47:53;3.78;;;1.73;;
83247;SDS011;73465;51.038;7.052;2023-12-04T07:50:18;4.72;;;1.60;;
83247;SDS011;73465;51.038;7.052;2023-12-04T07:52:44;5.22;;;1.67;;
83247;SDS011;73465;51.038;7.052;2023-12-04T07:55:09;4.80;;;1.75;;
83247;SDS011;73465;51.038;7.052;2023-12-04T07:57:34;2.83;;;1.88;;
83247;SDS011;73465;51.038;7.052;2023-12-04T08:00:00;2.85;;;1.70;;
83247;SDS011;73465;51.038;7.052;2023-12-04T08:02:25;4.65;;;1.65;;
83247;SDS011;73465;51.038;7.052;2023-12-04T08:04:50;6.90;;;1.55;;
83247;SDS011;73465;51.038;7.052;2023-12-04T08:07:16;2.55;;;1.40;;
83247;SDS011;73465;51.038;7.052;2023-12-04T08:09:41;1.98;;;1.45;;
83247;SDS011;73465;51.038;7.052;2023-12-04T08:12:06;2.60;;;1.70;;
83247;SDS011;73465;51.038;7.052;2023-12-04T08:14:32;2.90;;;1.30;;
83247;SDS011;73465;51.038;7.052;2023-12-04T08:16:57;3.33;;;1.80;;
83247;SDS011;73465;51.038;7.052;2023-12-04T08:19:23;9.73;;;1.42;;
83247;SDS011;73465;51.038;7.052;2023-12-04T08:21:48;2.67;;;1.52;;
83247;SDS011;73465;51.038;7.052;2023-12-04T08:24:14;2.97;;;1.70;;
83247;SDS011;73465;51.038;7.052;2023-12-04T08:26:42;4.30;;;1.65;;
83247;SDS011;73465;51.038;7.052;2023-12-04T08:29:07;2.70;;;1.58;;
83247;SDS011;73465;51.038;7.052;2023-12-04T08:31:32;1.88;;;1.05;;
83247;SDS011;73465;51.038;7.052;2023-12-04T08:33:58;2.78;;;1.60;;
83247;SDS011;73465;51.038;7.052;2023-12-04T08:36:23;4.40;;;2.17;;
83247;SDS011;73465;51.038;7.052;2023-12-04T08:38:49;2.83;;;1.88;;
83247;SDS011;73465;51.038;7.052;2023-12-04T08:41:14;2.55;;;1.60;;
83247;SDS011;73465;51.038;7.052;2023-12-04T08:43:40;1.73;;;1.25;;
83247;SDS011;73465;51.038;7.052;2023-12-04T08:46:05;2.42;;;1.50;;
83247;SDS011;73465;51.038;7.052;2023-12-04T08:48:31;1.55;;;1.10;;
83247;SDS011;73465;51.038;7.052;2023-12-04T08:50:56;2.75;;;1.50;;
83247;SDS011;73465;51.038;7.052;2023-12-04T08:53:21;2.10;;;1.20;;
83247;SDS011;73465;51.038;7.052;2023-12-04T08:55:46;2.03;;;1.25;;
83247;SDS011;73465;51.038;7.052;2023-12-04T08:58:12;2.38;;;1.65;;
83247;SDS011;73465;51.038;7.052;2023-12-04T09:00:37;2.88;;;1.45;;
83247;SDS011;73465;51.038;7.052;2023-12-04T09:03:07;3.78;;;1.35;;
83247;SDS011;73465;51.038;7.052;2023-12-04T09:05:33;2.00;;;1.40;;
83247;SDS011;73465;51.038;7.052;2023-12-04T09:07:58;2.30;;;1.50;;
83247;SDS011;73465;51.038;7.052;2023-12-04T09:10:23;2.80;;;1.38;;
83247;SDS011;73465;51.038;7.052;2023-12-04T09:12:49;1.70;;;1.30;;
83247;SDS011;73465;51.038;7.052;2023-12-04T09:15:14;2.92;;;1.20;;
83247;SDS011;73465;51.038;7.052;2023-12-04T09:17:39;2.50;;;1.20;;
83247;SDS011;73465;51.038;7.052;2023-12-04T09:20:05;3.90;;;1.30;;
83247;SDS011;73465;51.038;7.052;2023-12-04T09:22:31;2.28;;;1.30;;
83247;SDS011;73465;51.038;7.052;2023-12-04T09:24:56;2.22;;;1.30;;
83247;SDS011;73465;51.038;7.052;2023-12-04T09:27:22;2.63;;;1.60;;
83247;SDS011;73465;51.038;7.052;2023-12-04T09:29:47;5.50;;;1.50;;
83247;SDS011;73465;51.038;7.052;2023-12-04T09:32:13;2.00;;;1.30;;
83247;SDS011;73465;51.038;7.052;2023-12-04T09:34:38;2.25;;;1.15;;
83247;SDS011;73465;51.038;7.052;2023-12-04T09:37:03;2.25;;;1.38;;
83247;SDS011;73465;51.038;7.052;2023-12-04T09:39:29;1.88;;;1.35;;
83247;SDS011;73465;51.038;7.052;2023-12-04T09:41:55;2.75;;;1.45;;
83247;SDS011;73465;51.038;7.052;2023-12-04T09:44:21;2.00;;;1.40;;
83247;SDS011;73465;51.038;7.052;2023-12-04T09:46:49;3.03;;;1.45;;
83247;SDS011;73465;51.038;7.052;2023-12-04T09:49:16;2.75;;;1.50;;
83247;SDS011;73465;51.038;7.052;2023-12-04T09:51:43;1.92;;;0.95;;
83247;SDS011;73465;51.038;7.052;2023-12-04T09:54:09;1.40;;;1.30;;
83247;SDS011;73465;51.038;7.052;2023-12-04T09:56:34;1.67;;;1.17;;
83247;SDS011;73465;51.038;7.052;2023-12-04T09:59:01;3.13;;;1.30;;
83247;SDS011;73465;51.038;7.052;2023-12-04T10:01:31;3.53;;;1.42;;
83247;SDS011;73465;51.038;7.052;2023-12-04T10:03:57;2.80;;;1.20;;
83247;SDS011;73465;51.038;7.052;2023-12-04T10:06:24;1.83;;;1.50;;
83247;SDS011;73465;51.038;7.052;2023-12-04T10:08:53;1.90;;;1.38;;
83247;SDS011;73465;51.038;7.052;2023-12-04T10:11:18;2.05;;;1.42;;
83247;SDS011;73465;51.038;7.052;2023-12-04T10:13:43;1.60;;;1.17;;
83247;SDS011;73465;51.038;7.052;2023-12-04T10:16:09;1.60;;;1.30;;
83247;SDS011;73465;51.038;7.052;2023-12-04T10:18:34;3.20;;;1.45;;
83247;SDS011;73465;51.038;7.052;2023-12-04T10:21:00;3.15;;;1.35;;
83247;SDS011;73465;51.038;7.052;2023-12-04T10:23:43;3.33;;;1.23;;
83247;SDS011;73465;51.038;7.052;2023-12-04T10:26:09;2.22;;;1.30;;
83247;SDS011;73465;51.038;7.052;2023-12-04T10:28:39;2.17;;;1.20;;
83247;SDS011;73465;51.038;7.052;2023-12-04T10:31:04;1.83;;;1.10;;
83247;SDS011;73465;51.038;7.052;2023-12-04T10:33:32;1.75;;;1.23;;
83247;SDS011;73465;51.038;7.052;2023-12-04T10:35:57;1.88;;;1.20;;
83247;SDS011;73465;51.038;7.052;2023-12-04T10:38:23;2.78;;;1.25;;
83247;SDS011;73465;51.038;7.052;2023-12-04T10:40:48;2.05;;;1.20;;
83247;SDS011;73465;51.038;7.052;2023-12-04T10:43:18;1.48;;;1.08;;
83247;SDS011;73465;51.038;7.052;2023-12-04T10:45:45;1.92;;;1.13;;
83247;SDS011;73465;51.038;7.052;2023-12-04T10:48:12;1.60;;;1.13;;
83247;SDS011;73465;51.038;7.052;2023-12-04T10:50:45;2.35;;;1.08;;
83247;SDS011;73465;51.038;7.052;2023-12-04T10:53:16;1.38;;;1.13;;
83247;SDS011;73465;51.038;7.052;2023-12-04T10:55:42;1.83;;;1.23;;
83247;SDS011;73465;51.038;7.052;2023-12-04T10:58:13;2.05;;;1.17;;
83247;SDS011;73465;51.038;7.052;2023-12-04T11:00:46;1.80;;;0.90;;
83247;SDS011;73465;51.038;7.052;2023-12-04T11:03:14;3.05;;;1.50;;
83247;SDS011;73465;51.038;7.052;2023-12-04T11:05:42;1.70;;;1.05;;
83247;SDS011;73465;51.038;7.052;2023-12-04T11:08:11;2.38;;;1.40;;
83247;SDS011;73465;51.038;7.052;2023-12-04T11:13:21;1.48;;;1.00;;
83247;SDS011;73465;51.038;7.052;2023-12-04T11:15:51;1.95;;;1.08;;
83247;SDS011;73465;51.038;7.052;2023-12-04T11:18:19;2.25;;;1.10;;
83247;SDS011;73465;51.038;7.052;2023-12-04T11:20:50;2.50;;;1.10;;
83247;SDS011;73465;51.038;7.052;2023-12-04T11:23:18;1.83;;;1.00;;
83247;SDS011;73465;51.038;7.052;2023-12-04T11:25:44;1.83;;;1.05;;
83247;SDS011;73465;51.038;7.052;2023-12-04T11:28:12;1.90;;;1.20;;
83247;SDS011;73465;51.038;7.052;2023-12-04T11:30:38;1.42;;;1.02;;
83247;SDS011;73465;51.038;7.052;2023-12-04T11:33:04;1.42;;;0.98;;
83247;SDS011;73465;51.038;7.052;2023-12-04T11:35:30;1.08;;;0.98;;
83247;SDS011;73465;51.038;7.052;2023-12-04T11:37:55;1.95;;;1.10;;
83247;SDS011;73465;51.038;7.052;2023-12-04T11:40:22;2.72;;;1.15;;
83247;SDS011;73465;51.038;7.052;2023-12-04T11:42:47;3.30;;;1.40;;
83247;SDS011;73465;51.038;7.052;2023-12-04T11:45:19;2.55;;;1.17;;
83247;SDS011;73465;51.038;7.052;2023-12-04T11:47:54;1.98;;;1.10;;
83247;SDS011;73465;51.038;7.052;2023-12-04T11:50:21;1.75;;;1.10;;
83247;SDS011;73465;51.038;7.052;2023-12-04T11:52:49;2.75;;;1.25;;
83247;SDS011;73465;51.038;7.052;2023-12-04T11:55:18;1.60;;;1.10;;
83247;SDS011;73465;51.038;7.052;2023-12-04T11:57:46;1.58;;;1.10;;
83247;SDS011;73465;51.038;7.052;2023-12-04T12:05:19;2.63;;;1.23;;
83247;SDS011;73465;51.038;7.052;2023-12-04T12:07:44;1.00;;;0.85;;
83247;SDS011;73465;51.038;7.052;2023-12-04T12:10:10;2.80;;;1.05;;
83247;SDS011;73465;51.038;7.052;2023-12-04T12:12:37;1.88;;;1.13;;
83247;SDS011;73465;51.038;7.052;2023-12-04T12:15:08;2.35;;;1.00;;
83247;SDS011;73465;51.038;7.052;2023-12-04T12:17:34;1.80;;;1.05;;
83247;SDS011;73465;51.038;7.052;2023-12-04T12:20:00;2.80;;;1.15;;
83247;SDS011;73465;51.038;7.052;2023-12-04T12:22:25;2.45;;;1.00;;
83247;SDS011;73465;51.038;7.052;2023-12-04T12:24:51;3.95;;;1.30;;
83247;SDS011;73465;51.038;7.052;2023-12-04T12:27:16;1.42;;;1.00;;
83247;SDS011;73465;51.038;7.052;2023-12-04T12:29:42;2.83;;;1.40;;
83247;SDS011;73465;51.038;7.052;2023-12-04T12:32:08;2.17;;;1.33;;
83247;SDS011;73465;51.038;7.052;2023-12-04T12:34:33;2.63;;;1.27;;
83247;SDS011;73465;51.038;7.052;2023-12-04T12:37:01;1.30;;;0.90;;
83247;SDS011;73465;51.038;7.052;2023-12-04T12:39:28;3.40;;;1.30;;
83247;SDS011;73465;51.038;7.052;2023-12-04T12:41:54;1.52;;;0.88;;
83247;SDS011;73465;51.038;7.052;2023-12-04T12:44:20;2.22;;;1.30;;
83247;SDS011;73465;51.038;7.052;2023-12-04T12:46:48;1.45;;;0.90;;
83247;SDS011;73465;51.038;7.052;2023-12-04T12:49:17;2.75;;;1.20;;
83247;SDS011;73465;51.038;7.052;2023-12-04T12:51:44;1.40;;;1.00;;
83247;SDS011;73465;51.038;7.052;2023-12-04T12:54:10;1.45;;;1.08;;
83247;SDS011;73465;51.038;7.052;2023-12-04T12:56:35;2.10;;;1.20;;
83247;SDS011;73465;51.038;7.052;2023-12-04T12:59:01;3.70;;;1.00;;
83247;SDS011;73465;51.038;7.052;2023-12-04T13:01:30;2.65;;;0.98;;
83247;SDS011;73465;51.038;7.052;2023-12-04T13:03:56;1.73;;;1.00;;
83247;SDS011;73465;51.038;7.052;2023-12-04T13:06:22;2.13;;;0.90;;
83247;SDS011;73465;51.038;7.052;2023-12-04T13:08:47;2.75;;;1.08;;
83247;SDS011;73465;51.038;7.052;2023-12-04T13:11:13;1.38;;;0.95;;
83247;SDS011;73465;51.038;7.052;2023-12-04T13:13:39;2.10;;;1.10;;
83247;SDS011;73465;51.038;7.052;2023-12-04T13:16:05;1.67;;;1.20;;
83247;SDS011;73465;51.038;7.052;2023-12-04T13:18:31;1.83;;;1.00;;
83247;SDS011;73465;51.038;7.052;2023-12-04T13:20:59;1.55;;;1.13;;
83247;SDS011;73465;51.038;7.052;2023-12-04T13:23:25;1.65;;;1.10;;
83247;SDS011;73465;51.038;7.052;2023-12-04T13:25:50;3.03;;;0.80;;
83247;SDS011;73465;51.038;7.052;2023-12-04T13:28:16;1.88;;;0.98;;
83247;SDS011;73465;51.038;7.052;2023-12-04T13:30:41;2.13;;;1.17;;
83247;SDS011;73465;51.038;7.052;2023-12-04T13:33:07;1.70;;;1.00;;
83247;SDS011;73465;51.038;7.052;2023-12-04T13:35:33;2.85;;;1.30;;
83247;SDS011;73465;51.038;7.052;2023-12-04T13:37:58;2.30;;;1.10;;
83247;SDS011;73465;51.038;7.052;2023-12-04T13:40:24;1.77;;;1.05;;
83247;SDS011;73465;51.038;7.052;2023-12-04T13:42:53;2.67;;;1.00;;
83247;SDS011;73465;51.038;7.052;2023-12-04T13:45:37;1.58;;;1.13;;
83247;SDS011;73465;51.038;7.052;2023-12-04T13:48:03;1.88;;;1.00;;
83247;SDS011;73465;51.038;7.052;2023-12-04T13:50:28;2.67;;;1.40;;
83247;SDS011;73465;51.038;7.052;2023-12-04T13:52:54;2.92;;;1.30;;
83247;SDS011;73465;51.038;7.052;2023-12-04T13:55:25;2.13;;;0.98;;
83247;SDS011;73465;51.038;7.052;2023-12-04T13:58:09;2.35;;;1.17;;
83247;SDS011;73465;51.038;7.052;2023-12-04T14:00:55;2.85;;;1.27;;
83247;SDS011;73465;51.038;7.052;2023-12-04T14:03:20;1.98;;;1.10;;
83247;SDS011;73465;51.038;7.052;2023-12-04T14:05:45;1.00;;;0.90;;
83247;SDS011;73465;51.038;7.052;2023-12-04T14:08:10;2.58;;;1.20;;
83247;SDS011;73465;51.038;7.052;2023-12-04T14:10:36;1.13;;;0.77;;
83247;SDS011;73465;51.038;7.052;2023-12-04T14:13:01;1.23;;;1.05;;
83247;SDS011;73465;51.038;7.052;2023-12-04T14:15:27;1.52;;;0.93;;
83247;SDS011;73465;51.038;7.052;2023-12-04T14:17:52;1.67;;;1.10;;
83247;SDS011;73465;51.038;7.052;2023-12-04T14:20:17;2.25;;;1.33;;
83247;SDS011;73465;51.038;7.052;2023-12-04T14:22:44;1.98;;;1.10;;
83247;SDS011;73465;51.038;7.052;2023-12-04T14:25:13;2.00;;;0.90;;
83247;SDS011;73465;51.038;7.052;2023-12-04T14:27:38;2.72;;;1.50;;
83247;SDS011;73465;51.038;7.052;2023-12-04T14:30:06;1.45;;;1.00;;
83247;SDS011;73465;51.038;7.052;2023-12-04T14:32:33;2.08;;;1.30;;
83247;SDS011;73465;51.038;7.052;2023-12-04T14:34:59;1.55;;;1.05;;
83247;SDS011;73465;51.038;7.052;2023-12-04T14:37:25;3.28;;;1.25;;
83247;SDS011;73465;51.038;7.052;2023-12-04T14:39:51;2.90;;;1.23;;
83247;SDS011;73465;51.038;7.052;2023-12-04T14:42:16;2.35;;;1.25;;
83247;SDS011;73465;51.038;7.052;2023-12-04T14:44:41;1.52;;;0.88;;
83247;SDS011;73465;51.038;7.052;2023-12-04T14:47:06;1.33;;;0.73;;
83247;SDS011;73465;51.038;7.052;2023-12-04T14:49:33;2.03;;;1.27;;